sensor_id;sensor_type;location;lat;lon;timestamp;P1;durP1;ratioP1;P2;durP2;ratioP2
71127;SDS011;59249;59.736;30.568;2023-12-22T00:00:14;17.00;;;4.87;;
71127;SDS011;59249;59.736;30.568;2023-12-22T00:02:43;16.73;;;4.68;;
71127;SDS011;59249;59.736;30.568;2023-12-22T00:05:12;16.73;;;4.53;;
71127;SDS011;59249;59.736;30.568;2023-12-22T00:07:41;18.27;;;4.72;;
71127;SDS011;59249;59.736;30.568;2023-12-22T00:10:11;12.25;;;4.03;;
71127;SDS011;59249;59.736;30.568;2023-12-22T00:12:41;11.27;;;3.83;;
71127;SDS011;59249;59.736;30.568;2023-12-22T00:15:12;13.63;;;3.58;;
71127;SDS011;59249;59.736;30.568;2023-12-22T00:17:45;12.13;;;3.83;;
71127;SDS011;59249;59.736;30.568;2023-12-22T00:20:17;13.25;;;3.63;;
71127;SDS011;59249;59.736;30.568;2023-12-22T00:22:49;13.40;;;3.10;;
71127;SDS011;59249;59.736;30.568;2023-12-22T00:25:27;14.57;;;4.27;;
71127;SDS011;59249;59.736;30.568;2023-12-22T00:28:00;12.82;;;4.10;;
71127;SDS011;59249;59.736;30.568;2023-12-22T00:30:38;15.15;;;3.97;;
71127;SDS011;59249;59.736;30.568;2023-12-22T00:33:08;14.68;;;3.83;;
71127;SDS011;59249;59.736;30.568;2023-12-22T00:35:39;15.43;;;4.30;;
71127;SDS011;59249;59.736;30.568;2023-12-22T00:38:14;16.37;;;5.30;;
71127;SDS011;59249;59.736;30.568;2023-12-22T00:40:46;17.60;;;5.68;;
71127;SDS011;59249;59.736;30.568;2023-12-22T00:43:19;18.98;;;5.13;;
71127;SDS011;59249;59.736;30.568;2023-12-22T00:45:49;25.65;;;6.57;;
71127;SDS011;59249;59.736;30.568;2023-12-22T00:48:18;20.02;;;7.22;;
71127;SDS011;59249;59.736;30.568;2023-12-22T00:50:47;25.00;;;7.93;;
71127;SDS011;59249;59.736;30.568;2023-12-22T00:53:16;38.90;;;9.90;;
71127;SDS011;59249;59.736;30.568;2023-12-22T00:55:45;32.25;;;10.32;;
71127;SDS011;59249;59.736;30.568;2023-12-22T00:58:14;31.83;;;8.82;;
71127;SDS011;59249;59.736;30.568;2023-12-22T01:00:56;27.92;;;8.07;;
71127;SDS011;59249;59.736;30.568;2023-12-22T01:03:33;27.37;;;8.00;;
71127;SDS011;59249;59.736;30.568;2023-12-22T01:06:07;31.40;;;10.15;;
71127;SDS011;59249;59.736;30.568;2023-12-22T01:08:38;33.75;;;11.18;;
71127;SDS011;59249;59.736;30.568;2023-12-22T01:11:07;31.48;;;10.18;;
71127;SDS011;59249;59.736;30.568;2023-12-22T01:13:37;36.10;;;9.98;;
71127;SDS011;59249;59.736;30.568;2023-12-22T01:16:07;37.90;;;11.63;;
71127;SDS011;59249;59.736;30.568;2023-12-22T01:18:36;30.73;;;8.93;;
71127;SDS011;59249;59.736;30.568;2023-12-22T01:21:09;39.05;;;9.98;;
71127;SDS011;59249;59.736;30.568;2023-12-22T01:23:38;32.65;;;10.25;;
71127;SDS011;59249;59.736;30.568;2023-12-22T01:26:07;26.02;;;8.27;;
71127;SDS011;59249;59.736;30.568;2023-12-22T01:28:37;24.73;;;7.57;;
71127;SDS011;59249;59.736;30.568;2023-12-22T01:31:10;26.70;;;7.78;;
71127;SDS011;59249;59.736;30.568;2023-12-22T01:33:39;30.45;;;7.32;;
71127;SDS011;59249;59.736;30.568;2023-12-22T01:36:08;25.33;;;7.10;;
71127;SDS011;59249;59.736;30.568;2023-12-22T01:38:37;24.67;;;8.40;;
71127;SDS011;59249;59.736;30.568;2023-12-22T01:41:07;21.93;;;6.20;;
71127;SDS011;59249;59.736;30.568;2023-12-22T01:43:37;20.90;;;6.05;;
71127;SDS011;59249;59.736;30.568;2023-12-22T01:46:08;19.90;;;6.25;;
71127;SDS011;59249;59.736;30.568;2023-12-22T01:48:39;23.75;;;7.55;;
71127;SDS011;59249;59.736;30.568;2023-12-22T01:51:08;20.00;;;5.57;;
71127;SDS011;59249;59.736;30.568;2023-12-22T01:53:38;18.80;;;5.53;;
71127;SDS011;59249;59.736;30.568;2023-12-22T01:56:07;18.08;;;4.10;;
71127;SDS011;59249;59.736;30.568;2023-12-22T01:58:37;18.08;;;5.20;;
71127;SDS011;59249;59.736;30.568;2023-12-22T02:01:18;19.13;;;5.45;;
71127;SDS011;59249;59.736;30.568;2023-12-22T02:03:48;17.75;;;5.43;;
71127;SDS011;59249;59.736;30.568;2023-12-22T02:06:21;13.53;;;3.97;;
71127;SDS011;59249;59.736;30.568;2023-12-22T02:08:59;15.05;;;4.47;;
71127;SDS011;59249;59.736;30.568;2023-12-22T02:11:39;16.65;;;5.25;;
71127;SDS011;59249;59.736;30.568;2023-12-22T02:14:09;12.95;;;3.83;;
71127;SDS011;59249;59.736;30.568;2023-12-22T02:16:44;11.73;;;4.40;;
71127;SDS011;59249;59.736;30.568;2023-12-22T02:19:23;11.33;;;4.00;;
71127;SDS011;59249;59.736;30.568;2023-12-22T02:22:09;15.23;;;5.10;;
71127;SDS011;59249;59.736;30.568;2023-12-22T02:24:41;13.38;;;3.92;;
71127;SDS011;59249;59.736;30.568;2023-12-22T02:27:19;12.95;;;4.13;;
71127;SDS011;59249;59.736;30.568;2023-12-22T02:29:57;12.77;;;3.53;;
71127;SDS011;59249;59.736;30.568;2023-12-22T02:32:40;9.10;;;3.13;;
71127;SDS011;59249;59.736;30.568;2023-12-22T02:35:14;11.57;;;4.10;;
71127;SDS011;59249;59.736;30.568;2023-12-22T02:37:48;11.27;;;3.33;;
71127;SDS011;59249;59.736;30.568;2023-12-22T02:40:22;11.05;;;3.45;;
71127;SDS011;59249;59.736;30.568;2023-12-22T02:42:59;14.13;;;3.80;;
71127;SDS011;59249;59.736;30.568;2023-12-22T02:45:38;11.40;;;3.00;;
71127;SDS011;59249;59.736;30.568;2023-12-22T02:48:17;9.88;;;3.03;;
71127;SDS011;59249;59.736;30.568;2023-12-22T02:50:50;13.05;;;3.13;;
71127;SDS011;59249;59.736;30.568;2023-12-22T02:53:25;10.10;;;3.30;;
71127;SDS011;59249;59.736;30.568;2023-12-22T02:55:56;12.45;;;3.88;;
71127;SDS011;59249;59.736;30.568;2023-12-22T02:58:26;13.17;;;3.50;;
71127;SDS011;59249;59.736;30.568;2023-12-22T03:00:55;13.75;;;3.03;;
71127;SDS011;59249;59.736;30.568;2023-12-22T03:03:30;13.25;;;4.03;;
71127;SDS011;59249;59.736;30.568;2023-12-22T03:06:01;11.40;;;2.38;;
71127;SDS011;59249;59.736;30.568;2023-12-22T03:08:33;11.73;;;3.65;;
71127;SDS011;59249;59.736;30.568;2023-12-22T03:11:04;11.03;;;2.77;;
71127;SDS011;59249;59.736;30.568;2023-12-22T03:13:34;8.05;;;2.40;;
71127;SDS011;59249;59.736;30.568;2023-12-22T03:16:05;10.93;;;3.28;;
71127;SDS011;59249;59.736;30.568;2023-12-22T03:18:37;11.52;;;3.25;;
71127;SDS011;59249;59.736;30.568;2023-12-22T03:21:06;11.82;;;3.25;;
71127;SDS011;59249;59.736;30.568;2023-12-22T03:23:35;10.17;;;2.93;;
71127;SDS011;59249;59.736;30.568;2023-12-22T03:26:06;10.13;;;3.03;;
71127;SDS011;59249;59.736;30.568;2023-12-22T03:28:35;8.35;;;2.60;;
71127;SDS011;59249;59.736;30.568;2023-12-22T03:31:04;11.30;;;3.05;;
71127;SDS011;59249;59.736;30.568;2023-12-22T03:33:34;10.50;;;3.42;;
71127;SDS011;59249;59.736;30.568;2023-12-22T03:36:03;10.47;;;2.60;;
71127;SDS011;59249;59.736;30.568;2023-12-22T03:38:32;11.25;;;3.35;;
71127;SDS011;59249;59.736;30.568;2023-12-22T03:41:01;10.75;;;2.97;;
71127;SDS011;59249;59.736;30.568;2023-12-22T03:43:33;8.02;;;2.22;;
71127;SDS011;59249;59.736;30.568;2023-12-22T03:46:02;12.98;;;3.28;;
71127;SDS011;59249;59.736;30.568;2023-12-22T03:48:34;10.83;;;2.83;;
71127;SDS011;59249;59.736;30.568;2023-12-22T03:51:03;12.15;;;3.75;;
71127;SDS011;59249;59.736;30.568;2023-12-22T03:53:33;11.52;;;3.97;;
71127;SDS011;59249;59.736;30.568;2023-12-22T03:56:06;11.52;;;2.72;;
71127;SDS011;59249;59.736;30.568;2023-12-22T03:58:42;13.25;;;2.33;;
71127;SDS011;59249;59.736;30.568;2023-12-22T04:01:14;8.90;;;2.50;;
71127;SDS011;59249;59.736;30.568;2023-12-22T04:03:43;10.07;;;3.22;;
71127;SDS011;59249;59.736;30.568;2023-12-22T04:06:12;7.30;;;2.25;;
71127;SDS011;59249;59.736;30.568;2023-12-22T04:08:41;6.88;;;1.88;;
71127;SDS011;59249;59.736;30.568;2023-12-22T04:11:11;6.80;;;2.28;;
71127;SDS011;59249;59.736;30.568;2023-12-22T04:13:44;7.77;;;2.17;;
71127;SDS011;59249;59.736;30.568;2023-12-22T04:16:17;10.70;;;2.67;;
71127;SDS011;59249;59.736;30.568;2023-12-22T04:18:46;9.02;;;2.50;;
71127;SDS011;59249;59.736;30.568;2023-12-22T04:21:15;9.18;;;2.97;;
71127;SDS011;59249;59.736;30.568;2023-12-22T04:23:44;13.77;;;3.47;;
71127;SDS011;59249;59.736;30.568;2023-12-22T04:26:13;9.47;;;3.10;;
71127;SDS011;59249;59.736;30.568;2023-12-22T04:28:53;12.45;;;3.28;;
71127;SDS011;59249;59.736;30.568;2023-12-22T04:31:22;10.15;;;2.88;;
71127;SDS011;59249;59.736;30.568;2023-12-22T04:33:58;9.23;;;2.58;;
71127;SDS011;59249;59.736;30.568;2023-12-22T04:36:27;11.05;;;3.80;;
71127;SDS011;59249;59.736;30.568;2023-12-22T04:38:56;10.20;;;3.00;;
71127;SDS011;59249;59.736;30.568;2023-12-22T04:41:41;8.13;;;2.50;;
71127;SDS011;59249;59.736;30.568;2023-12-22T04:44:11;8.18;;;2.47;;
71127;SDS011;59249;59.736;30.568;2023-12-22T04:46:40;9.95;;;2.42;;
71127;SDS011;59249;59.736;30.568;2023-12-22T04:49:09;15.20;;;3.00;;
71127;SDS011;59249;59.736;30.568;2023-12-22T04:51:40;9.97;;;2.57;;
71127;SDS011;59249;59.736;30.568;2023-12-22T04:54:40;8.32;;;2.83;;
71127;SDS011;59249;59.736;30.568;2023-12-22T04:57:12;9.80;;;2.80;;
71127;SDS011;59249;59.736;30.568;2023-12-22T04:59:47;10.68;;;2.70;;
71127;SDS011;59249;59.736;30.568;2023-12-22T05:02:21;9.52;;;2.55;;
71127;SDS011;59249;59.736;30.568;2023-12-22T05:04:52;12.27;;;3.57;;
71127;SDS011;59249;59.736;30.568;2023-12-22T05:07:23;7.70;;;2.17;;
71127;SDS011;59249;59.736;30.568;2023-12-22T05:09:57;8.40;;;2.15;;
71127;SDS011;59249;59.736;30.568;2023-12-22T05:12:26;9.27;;;2.83;;
71127;SDS011;59249;59.736;30.568;2023-12-22T05:14:56;12.98;;;3.40;;
71127;SDS011;59249;59.736;30.568;2023-12-22T05:17:26;9.87;;;3.03;;
71127;SDS011;59249;59.736;30.568;2023-12-22T05:20:00;11.52;;;3.25;;
71127;SDS011;59249;59.736;30.568;2023-12-22T05:22:32;9.48;;;2.58;;
71127;SDS011;59249;59.736;30.568;2023-12-22T05:25:05;12.18;;;3.03;;
71127;SDS011;59249;59.736;30.568;2023-12-22T05:27:38;11.77;;;2.78;;
71127;SDS011;59249;59.736;30.568;2023-12-22T05:30:12;9.37;;;2.63;;
71127;SDS011;59249;59.736;30.568;2023-12-22T05:32:44;8.60;;;2.60;;
71127;SDS011;59249;59.736;30.568;2023-12-22T05:35:16;9.15;;;2.97;;
71127;SDS011;59249;59.736;30.568;2023-12-22T05:37:49;5.32;;;1.42;;
71127;SDS011;59249;59.736;30.568;2023-12-22T05:40:19;7.00;;;1.90;;
71127;SDS011;59249;59.736;30.568;2023-12-22T05:42:48;5.93;;;1.57;;
71127;SDS011;59249;59.736;30.568;2023-12-22T05:45:18;11.38;;;2.85;;
71127;SDS011;59249;59.736;30.568;2023-12-22T05:47:49;7.53;;;1.98;;
71127;SDS011;59249;59.736;30.568;2023-12-22T05:50:18;6.80;;;2.47;;
71127;SDS011;59249;59.736;30.568;2023-12-22T05:52:49;7.75;;;2.00;;
71127;SDS011;59249;59.736;30.568;2023-12-22T05:55:18;6.97;;;1.77;;
71127;SDS011;59249;59.736;30.568;2023-12-22T05:57:47;10.20;;;2.78;;
71127;SDS011;59249;59.736;30.568;2023-12-22T06:00:20;8.18;;;2.45;;
71127;SDS011;59249;59.736;30.568;2023-12-22T06:02:49;9.00;;;2.40;;
71127;SDS011;59249;59.736;30.568;2023-12-22T06:05:19;8.88;;;3.35;;
71127;SDS011;59249;59.736;30.568;2023-12-22T06:07:51;7.17;;;2.10;;
71127;SDS011;59249;59.736;30.568;2023-12-22T06:10:20;7.75;;;3.30;;
71127;SDS011;59249;59.736;30.568;2023-12-22T06:12:49;10.48;;;2.50;;
71127;SDS011;59249;59.736;30.568;2023-12-22T06:15:20;7.47;;;2.63;;
71127;SDS011;59249;59.736;30.568;2023-12-22T06:17:51;9.13;;;3.30;;
71127;SDS011;59249;59.736;30.568;2023-12-22T06:20:23;6.93;;;1.80;;
71127;SDS011;59249;59.736;30.568;2023-12-22T06:22:53;9.82;;;2.67;;
71127;SDS011;59249;59.736;30.568;2023-12-22T06:25:22;9.57;;;3.35;;
71127;SDS011;59249;59.736;30.568;2023-12-22T06:27:53;8.40;;;3.17;;
71127;SDS011;59249;59.736;30.568;2023-12-22T06:30:24;8.55;;;2.47;;
71127;SDS011;59249;59.736;30.568;2023-12-22T06:32:58;8.53;;;2.30;;
71127;SDS011;59249;59.736;30.568;2023-12-22T06:35:28;8.68;;;2.33;;
71127;SDS011;59249;59.736;30.568;2023-12-22T06:38:01;10.68;;;2.45;;
71127;SDS011;59249;59.736;30.568;2023-12-22T06:40:35;9.68;;;2.78;;
71127;SDS011;59249;59.736;30.568;2023-12-22T06:43:09;6.80;;;2.00;;
71127;SDS011;59249;59.736;30.568;2023-12-22T06:45:45;7.07;;;2.03;;
71127;SDS011;59249;59.736;30.568;2023-12-22T06:48:15;8.30;;;2.30;;
71127;SDS011;59249;59.736;30.568;2023-12-22T06:50:46;5.80;;;1.45;;
71127;SDS011;59249;59.736;30.568;2023-12-22T06:53:15;10.88;;;2.97;;
71127;SDS011;59249;59.736;30.568;2023-12-22T06:55:53;7.75;;;2.35;;
71127;SDS011;59249;59.736;30.568;2023-12-22T06:58:22;9.40;;;2.30;;
71127;SDS011;59249;59.736;30.568;2023-12-22T07:00:54;8.90;;;2.05;;
71127;SDS011;59249;59.736;30.568;2023-12-22T07:03:26;9.70;;;2.72;;
71127;SDS011;59249;59.736;30.568;2023-12-22T07:05:56;5.82;;;1.70;;
71127;SDS011;59249;59.736;30.568;2023-12-22T07:08:25;9.80;;;2.50;;
71127;SDS011;59249;59.736;30.568;2023-12-22T07:10:55;6.67;;;2.10;;
71127;SDS011;59249;59.736;30.568;2023-12-22T07:13:24;9.45;;;2.75;;
71127;SDS011;59249;59.736;30.568;2023-12-22T07:15:55;8.35;;;2.03;;
71127;SDS011;59249;59.736;30.568;2023-12-22T07:18:26;8.48;;;2.22;;
71127;SDS011;59249;59.736;30.568;2023-12-22T07:20:57;11.70;;;2.22;;
71127;SDS011;59249;59.736;30.568;2023-12-22T07:23:26;6.83;;;2.27;;
71127;SDS011;59249;59.736;30.568;2023-12-22T07:25:56;7.07;;;2.40;;
71127;SDS011;59249;59.736;30.568;2023-12-22T07:28:39;6.03;;;1.40;;
71127;SDS011;59249;59.736;30.568;2023-12-22T07:31:10;8.88;;;1.90;;
71127;SDS011;59249;59.736;30.568;2023-12-22T07:33:41;9.98;;;2.10;;
71127;SDS011;59249;59.736;30.568;2023-12-22T07:36:10;4.83;;;1.50;;
71127;SDS011;59249;59.736;30.568;2023-12-22T07:38:39;6.38;;;2.03;;
71127;SDS011;59249;59.736;30.568;2023-12-22T07:41:08;5.50;;;1.88;;
71127;SDS011;59249;59.736;30.568;2023-12-22T07:43:38;7.65;;;2.17;;
71127;SDS011;59249;59.736;30.568;2023-12-22T07:46:17;7.00;;;2.20;;
71127;SDS011;59249;59.736;30.568;2023-12-22T07:48:47;8.10;;;2.67;;
71127;SDS011;59249;59.736;30.568;2023-12-22T07:51:18;8.77;;;2.33;;
71127;SDS011;59249;59.736;30.568;2023-12-22T07:53:47;6.35;;;1.58;;
71127;SDS011;59249;59.736;30.568;2023-12-22T07:56:16;6.88;;;2.22;;
71127;SDS011;59249;59.736;30.568;2023-12-22T07:58:46;5.43;;;1.42;;
71127;SDS011;59249;59.736;30.568;2023-12-22T08:01:16;6.37;;;1.70;;
71127;SDS011;59249;59.736;30.568;2023-12-22T08:03:45;7.90;;;2.10;;
71127;SDS011;59249;59.736;30.568;2023-12-22T08:06:15;7.13;;;1.90;;
71127;SDS011;59249;59.736;30.568;2023-12-22T08:08:46;5.30;;;1.10;;
71127;SDS011;59249;59.736;30.568;2023-12-22T08:11:25;6.45;;;1.67;;
71127;SDS011;59249;59.736;30.568;2023-12-22T08:13:56;5.00;;;1.37;;
71127;SDS011;59249;59.736;30.568;2023-12-22T08:16:27;5.10;;;1.55;;
71127;SDS011;59249;59.736;30.568;2023-12-22T08:18:56;6.70;;;1.45;;
71127;SDS011;59249;59.736;30.568;2023-12-22T08:21:25;4.95;;;1.50;;
71127;SDS011;59249;59.736;30.568;2023-12-22T08:24:09;5.47;;;1.23;;
71127;SDS011;59249;59.736;30.568;2023-12-22T08:26:48;6.60;;;2.30;;
71127;SDS011;59249;59.736;30.568;2023-12-22T08:29:18;5.80;;;1.63;;
71127;SDS011;59249;59.736;30.568;2023-12-22T08:31:52;5.38;;;1.30;;
71127;SDS011;59249;59.736;30.568;2023-12-22T08:34:25;8.38;;;1.90;;
71127;SDS011;59249;59.736;30.568;2023-12-22T08:36:54;5.68;;;1.35;;
71127;SDS011;59249;59.736;30.568;2023-12-22T08:39:24;6.73;;;1.93;;
71127;SDS011;59249;59.736;30.568;2023-12-22T08:41:53;6.70;;;1.60;;
71127;SDS011;59249;59.736;30.568;2023-12-22T08:44:23;6.30;;;2.00;;
71127;SDS011;59249;59.736;30.568;2023-12-22T08:46:53;5.75;;;1.30;;
71127;SDS011;59249;59.736;30.568;2023-12-22T08:49:22;5.78;;;1.48;;
71127;SDS011;59249;59.736;30.568;2023-12-22T08:51:51;4.97;;;0.90;;
71127;SDS011;59249;59.736;30.568;2023-12-22T08:54:20;3.20;;;0.85;;
71127;SDS011;59249;59.736;30.568;2023-12-22T08:56:49;5.00;;;1.05;;
71127;SDS011;59249;59.736;30.568;2023-12-22T08:59:23;5.43;;;1.30;;
71127;SDS011;59249;59.736;30.568;2023-12-22T09:01:53;5.40;;;1.17;;
71127;SDS011;59249;59.736;30.568;2023-12-22T09:04:22;6.33;;;2.20;;
71127;SDS011;59249;59.736;30.568;2023-12-22T09:06:52;3.85;;;1.05;;
71127;SDS011;59249;59.736;30.568;2023-12-22T09:09:21;6.97;;;1.50;;
71127;SDS011;59249;59.736;30.568;2023-12-22T09:11:53;7.18;;;1.25;;
71127;SDS011;59249;59.736;30.568;2023-12-22T09:14:22;4.70;;;0.95;;
71127;SDS011;59249;59.736;30.568;2023-12-22T09:16:52;5.43;;;1.60;;
71127;SDS011;59249;59.736;30.568;2023-12-22T09:19:23;3.08;;;0.88;;
71127;SDS011;59249;59.736;30.568;2023-12-22T09:21:53;4.25;;;1.05;;
71127;SDS011;59249;59.736;30.568;2023-12-22T09:24:23;4.45;;;1.38;;
71127;SDS011;59249;59.736;30.568;2023-12-22T09:26:55;4.25;;;1.20;;
71127;SDS011;59249;59.736;30.568;2023-12-22T09:29:31;6.57;;;1.37;;
71127;SDS011;59249;59.736;30.568;2023-12-22T09:32:04;4.95;;;1.45;;
71127;SDS011;59249;59.736;30.568;2023-12-22T09:34:34;5.63;;;1.35;;
71127;SDS011;59249;59.736;30.568;2023-12-22T09:37:04;5.65;;;1.48;;
71127;SDS011;59249;59.736;30.568;2023-12-22T09:39:33;5.28;;;1.58;;
71127;SDS011;59249;59.736;30.568;2023-12-22T09:42:02;6.40;;;1.50;;
71127;SDS011;59249;59.736;30.568;2023-12-22T09:44:33;5.90;;;1.40;;
71127;SDS011;59249;59.736;30.568;2023-12-22T09:47:21;3.67;;;0.88;;
71127;SDS011;59249;59.736;30.568;2023-12-22T09:49:58;4.07;;;1.00;;
71127;SDS011;59249;59.736;30.568;2023-12-22T09:52:29;5.20;;;0.73;;
71127;SDS011;59249;59.736;30.568;2023-12-22T09:55:00;2.67;;;0.70;;
71127;SDS011;59249;59.736;30.568;2023-12-22T09:57:32;3.20;;;1.15;;
71127;SDS011;59249;59.736;30.568;2023-12-22T10:00:05;4.80;;;1.10;;
71127;SDS011;59249;59.736;30.568;2023-12-22T10:02:41;3.47;;;1.05;;
71127;SDS011;59249;59.736;30.568;2023-12-22T10:05:14;5.18;;;0.90;;
71127;SDS011;59249;59.736;30.568;2023-12-22T10:07:46;6.37;;;1.00;;
71127;SDS011;59249;59.736;30.568;2023-12-22T10:10:20;2.95;;;0.70;;
71127;SDS011;59249;59.736;30.568;2023-12-22T10:12:51;4.00;;;1.20;;
71127;SDS011;59249;59.736;30.568;2023-12-22T10:15:23;3.47;;;1.00;;
71127;SDS011;59249;59.736;30.568;2023-12-22T10:17:59;4.00;;;0.90;;
71127;SDS011;59249;59.736;30.568;2023-12-22T10:20:28;3.83;;;0.90;;
71127;SDS011;59249;59.736;30.568;2023-12-22T10:23:03;3.00;;;0.75;;
71127;SDS011;59249;59.736;30.568;2023-12-22T10:25:35;4.97;;;0.90;;
71127;SDS011;59249;59.736;30.568;2023-12-22T10:28:16;8.00;;;1.38;;
71127;SDS011;59249;59.736;30.568;2023-12-22T10:30:51;4.38;;;1.17;;
71127;SDS011;59249;59.736;30.568;2023-12-22T10:33:29;3.43;;;0.80;;
71127;SDS011;59249;59.736;30.568;2023-12-22T10:35:59;3.40;;;0.98;;
71127;SDS011;59249;59.736;30.568;2023-12-22T10:38:32;3.17;;;0.95;;
71127;SDS011;59249;59.736;30.568;2023-12-22T10:41:05;1.10;;;0.32;;
71127;SDS011;59249;59.736;30.568;2023-12-22T10:43:46;2.72;;;0.47;;
71127;SDS011;59249;59.736;30.568;2023-12-22T10:46:25;4.37;;;1.00;;
71127;SDS011;59249;59.736;30.568;2023-12-22T10:49:04;4.15;;;1.10;;
71127;SDS011;59249;59.736;30.568;2023-12-22T10:51:46;3.97;;;1.27;;
71127;SDS011;59249;59.736;30.568;2023-12-22T10:54:23;2.53;;;0.52;;
71127;SDS011;59249;59.736;30.568;2023-12-22T10:57:03;3.58;;;0.90;;
71127;SDS011;59249;59.736;30.568;2023-12-22T10:59:46;4.77;;;1.50;;
71127;SDS011;59249;59.736;30.568;2023-12-22T11:02:26;4.65;;;0.88;;
71127;SDS011;59249;59.736;30.568;2023-12-22T11:05:04;3.70;;;0.82;;
71127;SDS011;59249;59.736;30.568;2023-12-22T11:07:39;4.32;;;0.82;;
71127;SDS011;59249;59.736;30.568;2023-12-22T11:10:28;4.80;;;1.42;;
71127;SDS011;59249;59.736;30.568;2023-12-22T11:13:07;5.03;;;0.80;;
71127;SDS011;59249;59.736;30.568;2023-12-22T11:15:43;4.50;;;1.33;;
71127;SDS011;59249;59.736;30.568;2023-12-22T11:18:17;3.85;;;0.88;;
71127;SDS011;59249;59.736;30.568;2023-12-22T11:20:51;3.88;;;1.27;;
71127;SDS011;59249;59.736;30.568;2023-12-22T11:23:27;4.75;;;1.20;;
71127;SDS011;59249;59.736;30.568;2023-12-22T11:26:01;5.93;;;1.70;;
71127;SDS011;59249;59.736;30.568;2023-12-22T11:28:45;6.03;;;1.40;;
71127;SDS011;59249;59.736;30.568;2023-12-22T11:31:20;5.57;;;1.90;;
71127;SDS011;59249;59.736;30.568;2023-12-22T11:33:53;4.68;;;1.20;;
71127;SDS011;59249;59.736;30.568;2023-12-22T11:36:40;4.10;;;1.45;;
71127;SDS011;59249;59.736;30.568;2023-12-22T11:39:11;4.87;;;1.33;;
71127;SDS011;59249;59.736;30.568;2023-12-22T11:41:41;5.97;;;1.60;;
71127;SDS011;59249;59.736;30.568;2023-12-22T11:44:15;5.45;;;1.50;;
71127;SDS011;59249;59.736;30.568;2023-12-22T11:47:02;6.95;;;1.65;;
71127;SDS011;59249;59.736;30.568;2023-12-22T11:49:38;7.25;;;1.30;;
71127;SDS011;59249;59.736;30.568;2023-12-22T11:52:11;4.00;;;0.90;;
71127;SDS011;59249;59.736;30.568;2023-12-22T11:54:49;4.97;;;1.27;;
71127;SDS011;59249;59.736;30.568;2023-12-22T11:57:31;5.38;;;1.33;;
71127;SDS011;59249;59.736;30.568;2023-12-22T12:00:03;5.38;;;1.38;;
71127;SDS011;59249;59.736;30.568;2023-12-22T12:02:41;5.55;;;1.73;;
71127;SDS011;59249;59.736;30.568;2023-12-22T12:05:25;5.53;;;1.87;;
71127;SDS011;59249;59.736;30.568;2023-12-22T12:08:02;5.60;;;1.58;;
71127;SDS011;59249;59.736;30.568;2023-12-22T12:10:50;7.13;;;1.67;;
71127;SDS011;59249;59.736;30.568;2023-12-22T12:13:22;10.48;;;1.77;;
71127;SDS011;59249;59.736;30.568;2023-12-22T12:15:55;5.40;;;1.70;;
71127;SDS011;59249;59.736;30.568;2023-12-22T12:18:40;5.23;;;1.27;;
71127;SDS011;59249;59.736;30.568;2023-12-22T12:21:21;4.30;;;1.15;;
71127;SDS011;59249;59.736;30.568;2023-12-22T12:23:52;5.30;;;1.20;;
71127;SDS011;59249;59.736;30.568;2023-12-22T12:26:29;5.05;;;1.17;;
71127;SDS011;59249;59.736;30.568;2023-12-22T12:29:02;6.10;;;1.52;;
71127;SDS011;59249;59.736;30.568;2023-12-22T12:31:35;3.83;;;1.00;;
71127;SDS011;59249;59.736;30.568;2023-12-22T12:34:15;6.40;;;0.77;;
71127;SDS011;59249;59.736;30.568;2023-12-22T12:36:48;4.32;;;0.70;;
71127;SDS011;59249;59.736;30.568;2023-12-22T12:39:27;3.42;;;0.90;;
71127;SDS011;59249;59.736;30.568;2023-12-22T12:42:02;4.00;;;1.05;;
71127;SDS011;59249;59.736;30.568;2023-12-22T12:44:40;5.30;;;1.10;;
71127;SDS011;59249;59.736;30.568;2023-12-22T12:47:11;4.10;;;0.93;;
71127;SDS011;59249;59.736;30.568;2023-12-22T12:49:47;3.88;;;0.75;;
71127;SDS011;59249;59.736;30.568;2023-12-22T12:52:30;3.55;;;0.85;;
71127;SDS011;59249;59.736;30.568;2023-12-22T12:55:08;3.33;;;1.05;;
71127;SDS011;59249;59.736;30.568;2023-12-22T12:57:52;3.43;;;0.90;;
71127;SDS011;59249;59.736;30.568;2023-12-22T13:00:29;6.13;;;1.27;;
71127;SDS011;59249;59.736;30.568;2023-12-22T13:03:06;3.75;;;1.02;;
71127;SDS011;59249;59.736;30.568;2023-12-22T13:05:42;2.30;;;0.60;;
71127;SDS011;59249;59.736;30.568;2023-12-22T13:08:27;3.10;;;0.82;;
71127;SDS011;59249;59.736;30.568;2023-12-22T13:11:13;3.53;;;0.77;;
71127;SDS011;59249;59.736;30.568;2023-12-22T13:13:50;4.03;;;0.90;;
71127;SDS011;59249;59.736;30.568;2023-12-22T13:16:23;3.22;;;0.88;;
71127;SDS011;59249;59.736;30.568;2023-12-22T13:18:56;4.55;;;1.20;;
71127;SDS011;59249;59.736;30.568;2023-12-22T13:21:27;5.70;;;1.38;;
71127;SDS011;59249;59.736;30.568;2023-12-22T13:24:08;2.97;;;0.77;;
71127;SDS011;59249;59.736;30.568;2023-12-22T13:26:42;4.00;;;1.20;;
71127;SDS011;59249;59.736;30.568;2023-12-22T13:29:15;4.20;;;1.13;;
71127;SDS011;59249;59.736;30.568;2023-12-22T13:31:48;4.32;;;1.23;;
71127;SDS011;59249;59.736;30.568;2023-12-22T13:34:21;3.20;;;0.47;;
71127;SDS011;59249;59.736;30.568;2023-12-22T13:36:56;6.00;;;1.77;;
71127;SDS011;59249;59.736;30.568;2023-12-22T13:39:26;4.38;;;1.08;;
71127;SDS011;59249;59.736;30.568;2023-12-22T13:42:01;5.55;;;1.35;;
71127;SDS011;59249;59.736;30.568;2023-12-22T13:44:35;6.63;;;1.75;;
71127;SDS011;59249;59.736;30.568;2023-12-22T13:47:21;8.93;;;2.75;;
71127;SDS011;59249;59.736;30.568;2023-12-22T13:49:57;4.07;;;1.40;;
71127;SDS011;59249;59.736;30.568;2023-12-22T13:52:30;3.58;;;1.02;;
71127;SDS011;59249;59.736;30.568;2023-12-22T13:55:09;4.57;;;1.00;;
71127;SDS011;59249;59.736;30.568;2023-12-22T13:57:47;3.25;;;1.13;;
71127;SDS011;59249;59.736;30.568;2023-12-22T14:00:26;3.78;;;1.20;;
71127;SDS011;59249;59.736;30.568;2023-12-22T14:03:08;4.97;;;1.70;;
71127;SDS011;59249;59.736;30.568;2023-12-22T14:05:43;6.30;;;1.73;;
71127;SDS011;59249;59.736;30.568;2023-12-22T14:08:15;4.45;;;1.45;;
71127;SDS011;59249;59.736;30.568;2023-12-22T14:10:44;5.47;;;1.50;;
71127;SDS011;59249;59.736;30.568;2023-12-22T14:13:19;5.28;;;1.60;;
71127;SDS011;59249;59.736;30.568;2023-12-22T14:15:49;6.73;;;2.20;;
71127;SDS011;59249;59.736;30.568;2023-12-22T14:18:19;6.10;;;1.90;;
71127;SDS011;59249;59.736;30.568;2023-12-22T14:20:53;6.72;;;2.60;;
71127;SDS011;59249;59.736;30.568;2023-12-22T14:23:31;5.45;;;2.10;;
71127;SDS011;59249;59.736;30.568;2023-12-22T14:26:14;5.80;;;2.03;;
71127;SDS011;59249;59.736;30.568;2023-12-22T14:28:50;6.27;;;2.03;;
71127;SDS011;59249;59.736;30.568;2023-12-22T14:31:22;6.47;;;2.65;;
71127;SDS011;59249;59.736;30.568;2023-12-22T14:33:51;7.38;;;2.45;;
71127;SDS011;59249;59.736;30.568;2023-12-22T14:36:22;5.40;;;2.70;;
71127;SDS011;59249;59.736;30.568;2023-12-22T14:38:51;8.30;;;2.67;;
71127;SDS011;59249;59.736;30.568;2023-12-22T14:41:20;6.80;;;2.63;;
71127;SDS011;59249;59.736;30.568;2023-12-22T14:43:51;7.18;;;2.55;;
71127;SDS011;59249;59.736;30.568;2023-12-22T14:46:24;6.25;;;2.70;;
71127;SDS011;59249;59.736;30.568;2023-12-22T14:48:54;7.88;;;2.97;;
71127;SDS011;59249;59.736;30.568;2023-12-22T14:51:23;7.93;;;3.05;;
71127;SDS011;59249;59.736;30.568;2023-12-22T14:53:57;6.47;;;3.10;;
71127;SDS011;59249;59.736;30.568;2023-12-22T14:56:30;7.25;;;2.78;;
71127;SDS011;59249;59.736;30.568;2023-12-22T14:59:02;9.35;;;3.35;;
71127;SDS011;59249;59.736;30.568;2023-12-22T15:01:33;9.82;;;3.50;;
71127;SDS011;59249;59.736;30.568;2023-12-22T15:04:03;8.63;;;3.47;;